sensor_id;sensor_type;location;lat;lon;timestamp;temperature;humidity
66119;DHT22;52912;48.564;9.302;2023-09-19T00:00:31;16.23;96.16
66119;DHT22;52912;48.564;9.302;2023-09-19T00:02:58;16.26;95.71
66119;DHT22;52912;48.564;9.302;2023-09-19T00:05:24;16.24;95.79
66119;DHT22;52912;48.564;9.302;2023-09-19T00:07:50;16.23;95.86
66119;DHT22;52912;48.564;9.302;2023-09-19T00:10:16;16.20;95.68
66119;DHT22;52912;48.564;9.302;2023-09-19T00:12:42;16.20;95.97
66119;DHT22;52912;48.564;9.302;2023-09-19T00:15:08;16.23;95.50
66119;DHT22;52912;48.564;9.302;2023-09-19T00:17:34;16.29;95.73
66119;DHT22;52912;48.564;9.302;2023-09-19T00:20:01;16.30;95.15
66119;DHT22;52912;48.564;9.302;2023-09-19T00:22:26;16.24;95.34
66119;DHT22;52912;48.564;9.302;2023-09-19T00:24:52;16.27;95.24
66119;DHT22;52912;48.564;9.302;2023-09-19T00:27:17;16.30;94.44
66119;DHT22;52912;48.564;9.302;2023-09-19T00:29:42;16.43;94.60
66119;DHT22;52912;48.564;9.302;2023-09-19T00:32:08;16.34;94.49
66119;DHT22;52912;48.564;9.302;2023-09-19T00:34:33;16.40;94.49
66119;DHT22;52912;48.564;9.302;2023-09-19T00:37:00;16.44;93.82
66119;DHT22;52912;48.564;9.302;2023-09-19T00:39:25;16.40;94.27
66119;DHT22;52912;48.564;9.302;2023-09-19T00:41:51;16.41;94.23
66119;DHT22;52912;48.564;9.302;2023-09-19T00:44:16;16.34;94.19
66119;DHT22;52912;48.564;9.302;2023-09-19T00:46:42;16.37;94.00
66119;DHT22;52912;48.564;9.302;2023-09-19T00:49:07;16.44;93.90
66119;DHT22;52912;48.564;9.302;2023-09-19T00:51:34;16.43;94.17
66119;DHT22;52912;48.564;9.302;2023-09-19T00:54:02;16.43;94.04
66119;DHT22;52912;48.564;9.302;2023-09-19T00:56:28;16.43;94.53
66119;DHT22;52912;48.564;9.302;2023-09-19T00:58:53;16.54;94.51
66119;DHT22;52912;48.564;9.302;2023-09-19T01:01:19;16.36;94.55
66119;DHT22;52912;48.564;9.302;2023-09-19T01:03:45;16.33;94.82
66119;DHT22;52912;48.564;9.302;2023-09-19T01:06:10;16.33;94.71
66119;DHT22;52912;48.564;9.302;2023-09-19T01:08:36;16.40;95.32
66119;DHT22;52912;48.564;9.302;2023-09-19T01:11:10;16.41;95.27
66119;DHT22;52912;48.564;9.302;2023-09-19T01:13:47;16.36;95.10
66119;DHT22;52912;48.564;9.302;2023-09-19T01:16:19;16.39;95.46
66119;DHT22;52912;48.564;9.302;2023-09-19T01:18:55;16.40;95.69
66119;DHT22;52912;48.564;9.302;2023-09-19T01:21:26;16.34;95.37
66119;DHT22;52912;48.564;9.302;2023-09-19T01:24:16;16.46;95.59
66119;DHT22;52912;48.564;9.302;2023-09-19T01:27:11;16.39;95.77
66119;DHT22;52912;48.564;9.302;2023-09-19T01:29:45;16.39;96.22
66119;DHT22;52912;48.564;9.302;2023-09-19T01:32:16;16.32;97.21
66119;DHT22;52912;48.564;9.302;2023-09-19T01:34:46;16.30;96.21
66119;DHT22;52912;48.564;9.302;2023-09-19T01:37:11;16.27;95.87
66119;DHT22;52912;48.564;9.302;2023-09-19T01:39:37;16.23;95.64
66119;DHT22;52912;48.564;9.302;2023-09-19T01:42:08;16.27;95.68
66119;DHT22;52912;48.564;9.302;2023-09-19T01:44:41;16.33;95.90
66119;DHT22;52912;48.564;9.302;2023-09-19T01:47:17;16.30;95.73
66119;DHT22;52912;48.564;9.302;2023-09-19T01:49:50;16.23;96.44
66119;DHT22;52912;48.564;9.302;2023-09-19T01:52:20;16.22;96.43
66119;DHT22;52912;48.564;9.302;2023-09-19T01:54:49;16.27;95.71
66119;DHT22;52912;48.564;9.302;2023-09-19T01:57:19;16.30;95.50
66119;DHT22;52912;48.564;9.302;2023-09-19T01:59:48;16.39;95.88
66119;DHT22;52912;48.564;9.302;2023-09-19T02:02:17;16.39;95.88
66119;DHT22;52912;48.564;9.302;2023-09-19T02:04:43;16.30;95.90
66119;DHT22;52912;48.564;9.302;2023-09-19T02:07:09;16.33;96.10
66119;DHT22;52912;48.564;9.302;2023-09-19T02:09:34;16.33;95.92
66119;DHT22;52912;48.564;9.302;2023-09-19T02:11:59;16.41;95.77
66119;DHT22;52912;48.564;9.302;2023-09-19T02:14:25;16.37;95.86
66119;DHT22;52912;48.564;9.302;2023-09-19T02:16:50;16.37;95.84
66119;DHT22;52912;48.564;9.302;2023-09-19T02:19:17;16.32;95.93
66119;DHT22;52912;48.564;9.302;2023-09-19T02:21:43;16.37;95.97
66119;DHT22;52912;48.564;9.302;2023-09-19T02:24:08;16.30;96.01
66119;DHT22;52912;48.564;9.302;2023-09-19T02:26:34;16.26;96.08
66119;DHT22;52912;48.564;9.302;2023-09-19T02:28:59;16.32;96.17
66119;DHT22;52912;48.564;9.302;2023-09-19T02:31:25;16.30;95.86
66119;DHT22;52912;48.564;9.302;2023-09-19T02:33:50;16.20;96.28
66119;DHT22;52912;48.564;9.302;2023-09-19T02:36:17;16.20;96.59
66119;DHT22;52912;48.564;9.302;2023-09-19T02:38:43;16.23;96.62
66119;DHT22;52912;48.564;9.302;2023-09-19T02:41:08;16.16;96.61
66119;DHT22;52912;48.564;9.302;2023-09-19T02:43:34;16.13;96.75
66119;DHT22;52912;48.564;9.302;2023-09-19T02:45:59;16.04;96.90
66119;DHT22;52912;48.564;9.302;2023-09-19T02:48:25;16.01;96.93
66119;DHT22;52912;48.564;9.302;2023-09-19T02:50:50;15.98;97.15
66119;DHT22;52912;48.564;9.302;2023-09-19T02:53:17;16.02;97.14
66119;DHT22;52912;48.564;9.302;2023-09-19T02:55:43;15.94;97.36
66119;DHT22;52912;48.564;9.302;2023-09-19T02:58:08;15.92;97.21
66119;DHT22;52912;48.564;9.302;2023-09-19T03:00:34;15.92;97.55
66119;DHT22;52912;48.564;9.302;2023-09-19T03:02:59;15.92;97.16
66119;DHT22;52912;48.564;9.302;2023-09-19T03:05:25;15.95;97.16
66119;DHT22;52912;48.564;9.302;2023-09-19T03:07:51;15.96;97.35
66119;DHT22;52912;48.564;9.302;2023-09-19T03:10:18;15.99;97.25
66119;DHT22;52912;48.564;9.302;2023-09-19T03:12:44;16.05;97.29
66119;DHT22;52912;48.564;9.302;2023-09-19T03:15:10;16.06;96.81
66119;DHT22;52912;48.564;9.302;2023-09-19T03:17:35;16.12;96.97
66119;DHT22;52912;48.564;9.302;2023-09-19T03:20:01;16.09;96.79
66119;DHT22;52912;48.564;9.302;2023-09-19T03:22:26;16.10;97.15
66119;DHT22;52912;48.564;9.302;2023-09-19T03:24:52;16.15;96.81
66119;DHT22;52912;48.564;9.302;2023-09-19T03:27:19;16.10;96.91
66119;DHT22;52912;48.564;9.302;2023-09-19T03:29:45;16.20;96.57
66119;DHT22;52912;48.564;9.302;2023-09-19T03:32:10;16.09;96.69
66119;DHT22;52912;48.564;9.302;2023-09-19T03:34:36;16.17;96.81
66119;DHT22;52912;48.564;9.302;2023-09-19T03:37:02;16.12;97.54
66119;DHT22;52912;48.564;9.302;2023-09-19T03:39:27;16.08;96.72
66119;DHT22;52912;48.564;9.302;2023-09-19T03:41:53;16.10;96.67
66119;DHT22;52912;48.564;9.302;2023-09-19T03:44:20;16.17;96.59
66119;DHT22;52912;48.564;9.302;2023-09-19T03:46:45;16.13;96.54
66119;DHT22;52912;48.564;9.302;2023-09-19T03:49:10;16.19;96.48
66119;DHT22;52912;48.564;9.302;2023-09-19T03:51:36;16.17;96.53
66119;DHT22;52912;48.564;9.302;2023-09-19T03:54:01;16.10;96.54
66119;DHT22;52912;48.564;9.302;2023-09-19T03:56:27;16.13;96.87
66119;DHT22;52912;48.564;9.302;2023-09-19T03:58:52;16.17;97.03
66119;DHT22;52912;48.564;9.302;2023-09-19T04:01:19;16.27;97.10
66119;DHT22;52912;48.564;9.302;2023-09-19T04:03:45;16.13;97.00
66119;DHT22;52912;48.564;9.302;2023-09-19T04:06:10;16.15;97.11
66119;DHT22;52912;48.564;9.302;2023-09-19T04:08:35;16.08;97.04
66119;DHT22;52912;48.564;9.302;2023-09-19T04:11:01;16.13;96.99
66119;DHT22;52912;48.564;9.302;2023-09-19T04:13:26;16.09;97.42
66119;DHT22;52912;48.564;9.302;2023-09-19T04:15:52;16.05;97.62
66119;DHT22;52912;48.564;9.302;2023-09-19T04:18:18;15.94;98.32
66119;DHT22;52912;48.564;9.302;2023-09-19T04:20:48;15.95;98.49
66119;DHT22;52912;48.564;9.302;2023-09-19T04:23:13;15.92;98.78
66119;DHT22;52912;48.564;9.302;2023-09-19T04:25:40;15.89;98.95
66119;DHT22;52912;48.564;9.302;2023-09-19T04:28:05;15.98;98.91
66119;DHT22;52912;48.564;9.302;2023-09-19T04:30:31;16.05;98.39
66119;DHT22;52912;48.564;9.302;2023-09-19T04:32:56;15.79;98.99
66119;DHT22;52912;48.564;9.302;2023-09-19T04:35:23;15.70;99.41
66119;DHT22;52912;48.564;9.302;2023-09-19T04:37:50;15.74;99.31
66119;DHT22;52912;48.564;9.302;2023-09-19T04:40:15;15.71;99.43
66119;DHT22;52912;48.564;9.302;2023-09-19T04:42:41;15.77;99.66
66119;DHT22;52912;48.564;9.302;2023-09-19T04:45:07;15.75;99.29
66119;DHT22;52912;48.564;9.302;2023-09-19T04:47:32;15.74;99.67
66119;DHT22;52912;48.564;9.302;2023-09-19T04:49:58;15.58;99.75
66119;DHT22;52912;48.564;9.302;2023-09-19T04:52:25;15.70;99.38
66119;DHT22;52912;48.564;9.302;2023-09-19T04:54:50;15.65;99.38
66119;DHT22;52912;48.564;9.302;2023-09-19T04:57:16;15.60;99.70
66119;DHT22;52912;48.564;9.302;2023-09-19T04:59:41;15.55;99.69
66119;DHT22;52912;48.564;9.302;2023-09-19T05:02:07;15.58;99.54
66119;DHT22;52912;48.564;9.302;2023-09-19T05:04:32;15.58;99.33
66119;DHT22;52912;48.564;9.302;2023-09-19T05:06:57;15.62;99.13
66119;DHT22;52912;48.564;9.302;2023-09-19T05:09:24;15.62;98.68
66119;DHT22;52912;48.564;9.302;2023-09-19T05:11:50;15.70;98.43
66119;DHT22;52912;48.564;9.302;2023-09-19T05:14:16;15.78;97.74
66119;DHT22;52912;48.564;9.302;2023-09-19T05:16:41;15.88;97.42
66119;DHT22;52912;48.564;9.302;2023-09-19T05:19:06;15.84;97.44
66119;DHT22;52912;48.564;9.302;2023-09-19T05:21:32;15.87;97.75
66119;DHT22;52912;48.564;9.302;2023-09-19T05:23:57;16.01;97.45
66119;DHT22;52912;48.564;9.302;2023-09-19T05:26:24;16.02;97.42
66119;DHT22;52912;48.564;9.302;2023-09-19T05:28:50;16.04;97.31
66119;DHT22;52912;48.564;9.302;2023-09-19T05:31:15;16.19;97.13
66119;DHT22;52912;48.564;9.302;2023-09-19T05:33:40;16.20;97.09
66119;DHT22;52912;48.564;9.302;2023-09-19T05:36:06;16.20;96.73
66119;DHT22;52912;48.564;9.302;2023-09-19T05:38:31;16.26;96.73
66119;DHT22;52912;48.564;9.302;2023-09-19T05:40:57;16.29;97.07
66119;DHT22;52912;48.564;9.302;2023-09-19T05:43:24;16.32;96.60
66119;DHT22;52912;48.564;9.302;2023-09-19T05:45:49;16.27;97.20
66119;DHT22;52912;48.564;9.302;2023-09-19T05:48:15;16.20;98.01
66119;DHT22;52912;48.564;9.302;2023-09-19T05:50:40;16.20;98.28
66119;DHT22;52912;48.564;9.302;2023-09-19T05:53:06;16.23;97.88
66119;DHT22;52912;48.564;9.302;2023-09-19T05:55:31;16.27;97.63
66119;DHT22;52912;48.564;9.302;2023-09-19T05:57:57;16.33;97.99
66119;DHT22;52912;48.564;9.302;2023-09-19T06:00:24;16.36;98.05
66119;DHT22;52912;48.564;9.302;2023-09-19T06:02:51;16.37;98.02
66119;DHT22;52912;48.564;9.302;2023-09-19T06:05:16;16.40;97.63
66119;DHT22;52912;48.564;9.302;2023-09-19T06:07:41;16.39;97.65
66119;DHT22;52912;48.564;9.302;2023-09-19T06:10:08;16.44;97.86
66119;DHT22;52912;48.564;9.302;2023-09-19T06:12:33;16.49;97.30
66119;DHT22;52912;48.564;9.302;2023-09-19T06:14:59;16.49;97.10
66119;DHT22;52912;48.564;9.302;2023-09-19T06:17:25;16.51;96.82
66119;DHT22;52912;48.564;9.302;2023-09-19T06:19:51;16.56;97.58
66119;DHT22;52912;48.564;9.302;2023-09-19T06:22:16;16.50;97.27
66119;DHT22;52912;48.564;9.302;2023-09-19T06:24:42;16.51;97.51
66119;DHT22;52912;48.564;9.302;2023-09-19T06:27:07;16.53;97.62
66119;DHT22;52912;48.564;9.302;2023-09-19T06:29:33;16.50;97.74
66119;DHT22;52912;48.564;9.302;2023-09-19T06:31:58;16.47;98.22
66119;DHT22;52912;48.564;9.302;2023-09-19T06:34:25;16.41;97.98
66119;DHT22;52912;48.564;9.302;2023-09-19T06:36:51;16.41;97.98
66119;DHT22;52912;48.564;9.302;2023-09-19T06:39:17;16.41;97.79
66119;DHT22;52912;48.564;9.302;2023-09-19T06:41:42;16.39;97.79
66119;DHT22;52912;48.564;9.302;2023-09-19T06:44:08;16.43;97.51
66119;DHT22;52912;48.564;9.302;2023-09-19T06:46:33;16.50;98.08
66119;DHT22;52912;48.564;9.302;2023-09-19T06:48:58;16.61;97.95
66119;DHT22;52912;48.564;9.302;2023-09-19T06:51:25;16.69;97.68
66119;DHT22;52912;48.564;9.302;2023-09-19T06:53:51;16.84;97.50
66119;DHT22;52912;48.564;9.302;2023-09-19T06:56:16;16.92;97.07
66119;DHT22;52912;48.564;9.302;2023-09-19T06:58:41;16.92;96.82
66119;DHT22;52912;48.564;9.302;2023-09-19T07:01:07;16.82;96.69
66119;DHT22;52912;48.564;9.302;2023-09-19T07:03:32;16.95;96.89
66119;DHT22;52912;48.564;9.302;2023-09-19T07:05:58;17.02;96.28
66119;DHT22;52912;48.564;9.302;2023-09-19T07:08:24;17.01;96.13
66119;DHT22;52912;48.564;9.302;2023-09-19T07:10:50;17.18;96.33
66119;DHT22;52912;48.564;9.302;2023-09-19T07:13:15;17.06;96.23
66119;DHT22;52912;48.564;9.302;2023-09-19T07:15:41;17.13;96.60
66119;DHT22;52912;48.564;9.302;2023-09-19T07:18:06;17.11;96.16
66119;DHT22;52912;48.564;9.302;2023-09-19T07:20:32;17.06;96.08
66119;DHT22;52912;48.564;9.302;2023-09-19T07:22:58;17.19;95.79
66119;DHT22;52912;48.564;9.302;2023-09-19T07:25:25;17.24;95.30
66119;DHT22;52912;48.564;9.302;2023-09-19T07:27:50;17.41;95.15
66119;DHT22;52912;48.564;9.302;2023-09-19T07:30:16;17.46;94.55
66119;DHT22;52912;48.564;9.302;2023-09-19T07:32:41;17.58;94.72
66119;DHT22;52912;48.564;9.302;2023-09-19T07:35:07;17.81;93.70
66119;DHT22;52912;48.564;9.302;2023-09-19T07:37:33;17.86;93.33
66119;DHT22;52912;48.564;9.302;2023-09-19T07:39:58;17.91;93.17
66119;DHT22;52912;48.564;9.302;2023-09-19T07:42:25;18.05;93.03
66119;DHT22;52912;48.564;9.302;2023-09-19T07:44:51;18.09;92.37
66119;DHT22;52912;48.564;9.302;2023-09-19T07:47:16;18.32;92.23
66119;DHT22;52912;48.564;9.302;2023-09-19T07:49:42;18.53;91.11
66119;DHT22;52912;48.564;9.302;2023-09-19T07:52:08;18.81;90.16
66119;DHT22;52912;48.564;9.302;2023-09-19T07:54:33;18.64;90.19
66119;DHT22;52912;48.564;9.302;2023-09-19T07:56:59;18.81;89.78
66119;DHT22;52912;48.564;9.302;2023-09-19T07:59:26;18.94;89.91
66119;DHT22;52912;48.564;9.302;2023-09-19T08:01:51;18.84;88.80
66119;DHT22;52912;48.564;9.302;2023-09-19T08:04:17;18.82;89.42
66119;DHT22;52912;48.564;9.302;2023-09-19T08:06:42;18.58;88.79
66119;DHT22;52912;48.564;9.302;2023-09-19T08:09:08;18.58;89.33
66119;DHT22;52912;48.564;9.302;2023-09-19T08:11:34;18.67;88.46
66119;DHT22;52912;48.564;9.302;2023-09-19T08:13:59;18.63;88.31
66119;DHT22;52912;48.564;9.302;2023-09-19T08:16:26;18.75;88.70
66119;DHT22;52912;48.564;9.302;2023-09-19T08:18:52;18.71;88.77
66119;DHT22;52912;48.564;9.302;2023-09-19T08:21:17;18.84;88.76
66119;DHT22;52912;48.564;9.302;2023-09-19T08:23:42;18.78;87.57
66119;DHT22;52912;48.564;9.302;2023-09-19T08:26:08;18.65;87.11
66119;DHT22;52912;48.564;9.302;2023-09-19T08:28:33;18.67;86.25
66119;DHT22;52912;48.564;9.302;2023-09-19T08:31:01;18.72;86.97
66119;DHT22;52912;48.564;9.302;2023-09-19T08:33:28;18.58;85.67
66119;DHT22;52912;48.564;9.302;2023-09-19T08:35:55;18.56;85.51
66119;DHT22;52912;48.564;9.302;2023-09-19T08:38:21;18.91;85.23
66119;DHT22;52912;48.564;9.302;2023-09-19T08:40:46;18.98;83.74
66119;DHT22;52912;48.564;9.302;2023-09-19T08:43:12;19.49;83.79
66119;DHT22;52912;48.564;9.302;2023-09-19T08:45:37;19.38;83.74
66119;DHT22;52912;48.564;9.302;2023-09-19T08:48:15;19.44;83.02
66119;DHT22;52912;48.564;9.302;2023-09-19T08:50:49;19.54;82.73
66119;DHT22;52912;48.564;9.302;2023-09-19T08:53:26;19.16;82.89
66119;DHT22;52912;48.564;9.302;2023-09-19T08:55:52;19.36;82.26
66119;DHT22;52912;48.564;9.302;2023-09-19T08:58:18;19.37;82.66
66119;DHT22;52912;48.564;9.302;2023-09-19T09:00:44;19.57;81.62
66119;DHT22;52912;48.564;9.302;2023-09-19T09:03:12;19.70;81.53
66119;DHT22;52912;48.564;9.302;2023-09-19T09:05:39;19.65;81.52
66119;DHT22;52912;48.564;9.302;2023-09-19T09:08:08;19.63;81.22
66119;DHT22;52912;48.564;9.302;2023-09-19T09:10:34;19.61;80.58
66119;DHT22;52912;48.564;9.302;2023-09-19T09:12:59;19.67;80.38
66119;DHT22;52912;48.564;9.302;2023-09-19T09:15:25;19.34;80.03
66119;DHT22;52912;48.564;9.302;2023-09-19T09:17:51;20.08;79.41
66119;DHT22;52912;48.564;9.302;2023-09-19T09:20:18;19.86;79.30
66119;DHT22;52912;48.564;9.302;2023-09-19T09:22:50;19.65;79.29
66119;DHT22;52912;48.564;9.302;2023-09-19T09:25:17;19.72;79.27
66119;DHT22;52912;48.564;9.302;2023-09-19T09:27:43;19.70;79.95
66119;DHT22;52912;48.564;9.302;2023-09-19T09:30:09;19.81;80.02
66119;DHT22;52912;48.564;9.302;2023-09-19T09:32:34;19.95;79.82
66119;DHT22;52912;48.564;9.302;2023-09-19T09:35:01;20.06;79.40
66119;DHT22;52912;48.564;9.302;2023-09-19T09:37:27;20.32;77.63
66119;DHT22;52912;48.564;9.302;2023-09-19T09:39:54;21.09;75.97
66119;DHT22;52912;48.564;9.302;2023-09-19T09:42:30;21.27;75.06
66119;DHT22;52912;48.564;9.302;2023-09-19T09:45:12;21.32;75.26
66119;DHT22;52912;48.564;9.302;2023-09-19T09:47:45;21.64;73.96
66119;DHT22;52912;48.564;9.302;2023-09-19T09:50:10;22.03;72.64
66119;DHT22;52912;48.564;9.302;2023-09-19T09:52:44;22.09;71.67
66119;DHT22;52912;48.564;9.302;2023-09-19T09:55:10;22.22;71.50
66119;DHT22;52912;48.564;9.302;2023-09-19T09:57:37;22.13;71.07
66119;DHT22;52912;48.564;9.302;2023-09-19T10:00:03;22.14;70.88
66119;DHT22;52912;48.564;9.302;2023-09-19T10:02:29;22.50;70.42
66119;DHT22;52912;48.564;9.302;2023-09-19T10:04:56;22.43;69.53
66119;DHT22;52912;48.564;9.302;2023-09-19T10:07:28;22.08;69.78
66119;DHT22;52912;48.564;9.302;2023-09-19T10:09:54;22.32;69.19
66119;DHT22;52912;48.564;9.302;2023-09-19T10:12:20;22.72;68.79
66119;DHT22;52912;48.564;9.302;2023-09-19T10:14:47;22.92;68.98
66119;DHT22;52912;48.564;9.302;2023-09-19T10:17:13;22.65;68.26
66119;DHT22;52912;48.564;9.302;2023-09-19T10:19:46;23.12;67.29
66119;DHT22;52912;48.564;9.302;2023-09-19T10:22:19;22.90;67.53
66119;DHT22;52912;48.564;9.302;2023-09-19T10:24:45;23.39;66.93
66119;DHT22;52912;48.564;9.302;2023-09-19T10:27:12;23.64;65.66
66119;DHT22;52912;48.564;9.302;2023-09-19T10:29:39;23.82;65.44
66119;DHT22;52912;48.564;9.302;2023-09-19T10:32:06;23.79;65.99
66119;DHT22;52912;48.564;9.302;2023-09-19T10:34:34;23.19;65.11
66119;DHT22;52912;48.564;9.302;2023-09-19T10:37:02;22.98;65.92
66119;DHT22;52912;48.564;9.302;2023-09-19T10:39:30;23.23;65.57
66119;DHT22;52912;48.564;9.302;2023-09-19T10:41:57;22.61;66.91
66119;DHT22;52912;48.564;9.302;2023-09-19T10:44:27;22.91;67.02
66119;DHT22;52912;48.564;9.302;2023-09-19T10:46:53;22.24;67.98
66119;DHT22;52912;48.564;9.302;2023-09-19T10:49:20;22.79;67.29
66119;DHT22;52912;48.564;9.302;2023-09-19T10:51:46;22.09;68.67
66119;DHT22;52912;48.564;9.302;2023-09-19T10:54:15;22.09;68.73
66119;DHT22;52912;48.564;9.302;2023-09-19T10:56:43;21.84;68.09
66119;DHT22;52912;48.564;9.302;2023-09-19T10:59:10;22.82;67.54
66119;DHT22;52912;48.564;9.302;2023-09-19T11:01:43;23.01;67.26
66119;DHT22;52912;48.564;9.302;2023-09-19T11:04:23;22.67;67.62
66119;DHT22;52912;48.564;9.302;2023-09-19T11:06:59;23.33;65.96
66119;DHT22;52912;48.564;9.302;2023-09-19T11:09:42;23.67;65.95
66119;DHT22;52912;48.564;9.302;2023-09-19T11:12:08;24.17;65.10
66119;DHT22;52912;48.564;9.302;2023-09-19T11:14:42;24.05;64.41
66119;DHT22;52912;48.564;9.302;2023-09-19T11:17:33;23.20;65.80
66119;DHT22;52912;48.564;9.302;2023-09-19T11:20:24;22.69;66.76
66119;DHT22;52912;48.564;9.302;2023-09-19T11:23:23;22.32;67.63
66119;DHT22;52912;48.564;9.302;2023-09-19T11:25:49;22.41;68.62
66119;DHT22;52912;48.564;9.302;2023-09-19T11:28:31;22.68;67.85
66119;DHT22;52912;48.564;9.302;2023-09-19T11:30:57;22.88;67.39
66119;DHT22;52912;48.564;9.302;2023-09-19T11:33:23;23.09;66.17
66119;DHT22;52912;48.564;9.302;2023-09-19T11:36:03;23.89;65.28
66119;DHT22;52912;48.564;9.302;2023-09-19T11:38:58;24.51;64.57
66119;DHT22;52912;48.564;9.302;2023-09-19T11:41:37;24.67;62.84
66119;DHT22;52912;48.564;9.302;2023-09-19T11:44:31;25.14;62.52
66119;DHT22;52912;48.564;9.302;2023-09-19T11:46:57;24.63;61.01
66119;DHT22;52912;48.564;9.302;2023-09-19T11:49:27;24.70;61.13
66119;DHT22;52912;48.564;9.302;2023-09-19T11:51:54;25.04;60.60
66119;DHT22;52912;48.564;9.302;2023-09-19T11:54:20;25.60;60.68
66119;DHT22;52912;48.564;9.302;2023-09-19T11:56:46;25.01;60.17
66119;DHT22;52912;48.564;9.302;2023-09-19T11:59:19;24.87;60.44
66119;DHT22;52912;48.564;9.302;2023-09-19T12:01:51;24.15;62.50
66119;DHT22;52912;48.564;9.302;2023-09-19T12:04:18;24.08;62.08
66119;DHT22;52912;48.564;9.302;2023-09-19T12:06:57;24.36;61.44
66119;DHT22;52912;48.564;9.302;2023-09-19T12:09:23;24.50;61.52
66119;DHT22;52912;48.564;9.302;2023-09-19T12:11:48;25.25;61.24
66119;DHT22;52912;48.564;9.302;2023-09-19T12:14:22;24.72;61.79
66119;DHT22;52912;48.564;9.302;2023-09-19T12:16:51;24.88;61.60
66119;DHT22;52912;48.564;9.302;2023-09-19T12:19:18;24.09;62.78
66119;DHT22;52912;48.564;9.302;2023-09-19T12:21:43;24.23;62.96
66119;DHT22;52912;48.564;9.302;2023-09-19T12:24:12;24.78;62.12
66119;DHT22;52912;48.564;9.302;2023-09-19T12:26:39;25.23;61.37
66119;DHT22;52912;48.564;9.302;2023-09-19T12:29:05;25.26;60.76
66119;DHT22;52912;48.564;9.302;2023-09-19T12:31:30;25.15;60.18
66119;DHT22;52912;48.564;9.302;2023-09-19T12:33:56;25.40;59.78
66119;DHT22;52912;48.564;9.302;2023-09-19T12:36:22;25.46;60.39
66119;DHT22;52912;48.564;9.302;2023-09-19T12:38:48;26.04;58.79
66119;DHT22;52912;48.564;9.302;2023-09-19T12:41:15;26.44;58.84
66119;DHT22;52912;48.564;9.302;2023-09-19T12:43:41;26.35;58.34
66119;DHT22;52912;48.564;9.302;2023-09-19T12:46:06;25.87;58.33
66119;DHT22;52912;48.564;9.302;2023-09-19T12:48:32;26.28;57.77
66119;DHT22;52912;48.564;9.302;2023-09-19T12:51:04;25.89;58.26
66119;DHT22;52912;48.564;9.302;2023-09-19T12:53:29;25.27;59.13
66119;DHT22;52912;48.564;9.302;2023-09-19T12:55:58;25.14;59.41
66119;DHT22;52912;48.564;9.302;2023-09-19T12:58:25;24.61;61.14
66119;DHT22;52912;48.564;9.302;2023-09-19T13:00:51;24.27;61.55
66119;DHT22;52912;48.564;9.302;2023-09-19T13:03:17;24.20;61.64
66119;DHT22;52912;48.564;9.302;2023-09-19T13:05:47;24.32;61.97
66119;DHT22;52912;48.564;9.302;2023-09-19T13:08:24;23.99;61.83
66119;DHT22;52912;48.564;9.302;2023-09-19T13:11:06;23.92;62.43
66119;DHT22;52912;48.564;9.302;2023-09-19T13:13:33;23.72;62.42
66119;DHT22;52912;48.564;9.302;2023-09-19T13:16:01;25.15;60.41
66119;DHT22;52912;48.564;9.302;2023-09-19T13:18:27;25.37;59.20
66119;DHT22;52912;48.564;9.302;2023-09-19T13:21:06;25.49;58.81
66119;DHT22;52912;48.564;9.302;2023-09-19T13:23:31;25.92;57.42
66119;DHT22;52912;48.564;9.302;2023-09-19T13:25:57;26.13;56.03
66119;DHT22;52912;48.564;9.302;2023-09-19T13:28:22;26.26;55.88
66119;DHT22;52912;48.564;9.302;2023-09-19T13:30:49;26.41;55.90
66119;DHT22;52912;48.564;9.302;2023-09-19T13:33:15;26.57;56.38
66119;DHT22;52912;48.564;9.302;2023-09-19T13:35:40;26.44;56.91
66119;DHT22;52912;48.564;9.302;2023-09-19T13:38:06;26.41;56.89
66119;DHT22;52912;48.564;9.302;2023-09-19T13:40:32;26.15;57.22
66119;DHT22;52912;48.564;9.302;2023-09-19T13:42:57;26.26;57.34
66119;DHT22;52912;48.564;9.302;2023-09-19T13:45:23;26.71;57.55
66119;DHT22;52912;48.564;9.302;2023-09-19T13:47:50;26.39;57.63
66119;DHT22;52912;48.564;9.302;2023-09-19T13:50:15;26.73;57.85
66119;DHT22;52912;48.564;9.302;2023-09-19T13:52:41;27.12;57.37
66119;DHT22;52912;48.564;9.302;2023-09-19T13:55:07;27.02;56.72
66119;DHT22;52912;48.564;9.302;2023-09-19T13:57:32;26.87;55.91
66119;DHT22;52912;48.564;9.302;2023-09-19T13:59:58;26.67;56.16
66119;DHT22;52912;48.564;9.302;2023-09-19T14:02:24;27.13;56.01
66119;DHT22;52912;48.564;9.302;2023-09-19T14:04:52;27.53;55.79
66119;DHT22;52912;48.564;9.302;2023-09-19T14:07:17;27.20;56.01
66119;DHT22;52912;48.564;9.302;2023-09-19T14:09:43;27.40;56.23
66119;DHT22;52912;48.564;9.302;2023-09-19T14:12:08;27.30;55.86
66119;DHT22;52912;48.564;9.302;2023-09-19T14:14:34;27.11;55.52
66119;DHT22;52912;48.564;9.302;2023-09-19T14:16:59;27.60;55.50
66119;DHT22;52912;48.564;9.302;2023-09-19T14:19:25;27.02;55.80
66119;DHT22;52912;48.564;9.302;2023-09-19T14:21:51;27.01;56.32
66119;DHT22;52912;48.564;9.302;2023-09-19T14:24:17;26.99;56.27
66119;DHT22;52912;48.564;9.302;2023-09-19T14:26:43;26.87;56.89
66119;DHT22;52912;48.564;9.302;2023-09-19T14:29:08;26.78;56.69
66119;DHT22;52912;48.564;9.302;2023-09-19T14:31:37;26.81;56.82
66119;DHT22;52912;48.564;9.302;2023-09-19T14:34:02;27.12;57.33
66119;DHT22;52912;48.564;9.302;2023-09-19T14:36:27;26.68;57.57
66119;DHT22;52912;48.564;9.302;2023-09-19T14:38:55;26.40;56.74
66119;DHT22;52912;48.564;9.302;2023-09-19T14:41:21;26.74;56.54
66119;DHT22;52912;48.564;9.302;2023-09-19T14:43:46;26.73;55.77
66119;DHT22;52912;48.564;9.302;2023-09-19T14:46:11;26.50;55.12
66119;DHT22;52912;48.564;9.302;2023-09-19T14:48:37;26.68;55.38
66119;DHT22;52912;48.564;9.302;2023-09-19T14:51:03;26.57;54.91
66119;DHT22;52912;48.564;9.302;2023-09-19T14:53:28;26.50;55.20
66119;DHT22;52912;48.564;9.302;2023-09-19T14:55:55;25.85;55.95
66119;DHT22;52912;48.564;9.302;2023-09-19T14:58:23;25.49;56.09
66119;DHT22;52912;48.564;9.302;2023-09-19T15:00:48;25.51;56.43
66119;DHT22;52912;48.564;9.302;2023-09-19T15:03:14;25.68;56.08
66119;DHT22;52912;48.564;9.302;2023-09-19T15:05:39;25.92;55.84
66119;DHT22;52912;48.564;9.302;2023-09-19T15:08:05;26.12;55.40
66119;DHT22;52912;48.564;9.302;2023-09-19T15:10:30;26.60;55.46
66119;DHT22;52912;48.564;9.302;2023-09-19T15:12:57;26.67;55.25
66119;DHT22;52912;48.564;9.302;2023-09-19T15:15:23;25.96;56.46
66119;DHT22;52912;48.564;9.302;2023-09-19T15:17:48;26.57;55.85
66119;DHT22;52912;48.564;9.302;2023-09-19T15:20:14;26.87;55.37
66119;DHT22;52912;48.564;9.302;2023-09-19T15:22:39;26.67;55.67
66119;DHT22;52912;48.564;9.302;2023-09-19T15:25:05;26.56;55.69
66119;DHT22;52912;48.564;9.302;2023-09-19T15:27:31;26.40;55.92
66119;DHT22;52912;48.564;9.302;2023-09-19T15:29:59;26.51;55.38